createdAt,value
2017-09-01T00:00:06.842Z,1021.08
2017-09-01T00:01:15.681Z,1021.05
2017-09-01T00:02:24.523Z,1021.09
2017-09-01T00:03:33.362Z,1021.08
2017-09-01T00:04:42.207Z,1021.06
2017-09-01T00:05:51.200Z,1021.03
2017-09-01T00:07:00.042Z,1021.06
2017-09-01T00:08:08.881Z,1021.07
2017-09-01T00:09:17.719Z,1021.04
2017-09-01T00:10:26.563Z,1021.04
2017-09-01T00:11:35.453Z,1021.03
2017-09-01T00:12:44.293Z,1021.03
2017-09-01T00:13:53.135Z,1020.98
2017-09-01T00:15:01.974Z,1021.03
2017-09-01T00:16:10.819Z,1021.04
2017-09-01T00:17:19.708Z,1021.08
2017-09-01T00:18:28.550Z,1021.03
2017-09-01T00:19:37.391Z,1020.98
2017-09-01T00:20:46.234Z,1020.97
2017-09-01T00:21:55.073Z,1020.94
2017-09-01T00:23:03.965Z,1020.9
2017-09-01T00:24:12.806Z,1020.91
2017-09-01T00:25:21.685Z,1020.89
2017-09-01T00:26:30.486Z,1020.88
2017-09-01T00:27:39.326Z,1020.9
2017-09-01T00:28:48.165Z,1020.9
2017-09-01T00:29:57.008Z,1020.91
2017-09-01T00:31:05.848Z,1020.88
2017-09-01T00:32:14.690Z,1020.93
2017-09-01T00:33:23.529Z,1020.85
2017-09-01T00:34:32.671Z,1020.88
2017-09-01T00:35:41.511Z,1020.86
2017-09-01T00:36:50.685Z,1020.88
2017-09-01T00:37:59.523Z,1020.92
2017-09-01T00:39:08.364Z,1020.9
2017-09-01T00:40:17.356Z,1020.9
2017-09-01T00:41:26.196Z,1020.92
2017-09-01T00:42:35.038Z,1020.9
2017-09-01T00:43:44.213Z,1020.93
2017-09-01T00:44:53.056Z,1020.91
2017-09-01T00:46:01.996Z,1020.91
2017-09-01T00:47:10.837Z,1020.91
2017-09-01T00:48:19.679Z,1020.88
2017-09-01T00:49:28.521Z,1020.86
2017-09-01T00:50:37.366Z,1020.85
2017-09-01T00:51:46.356Z,1020.87
2017-09-01T00:52:55.214Z,1020.87
2017-09-01T00:54:04.037Z,1020.86
2017-09-01T00:55:13.234Z,1020.86
2017-09-01T00:56:22.385Z,1020.91
2017-09-01T00:57:31.526Z,1020.95
2017-09-01T00:58:40.366Z,1020.97
2017-09-01T00:59:49.213Z,1020.99
2017-09-01T01:00:58.055Z,1020.99
2017-09-01T01:02:06.898Z,1021.06
2017-09-01T01:03:15.892Z,1021.06
2017-09-01T01:04:24.732Z,1021.05
2017-09-01T01:05:33.575Z,1021.05
2017-09-01T01:06:42.418Z,1021.06
2017-09-01T01:07:51.261Z,1021.07
2017-09-01T01:09:00.202Z,1021.04
2017-09-01T01:10:09.045Z,1021.03
2017-09-01T01:11:17.886Z,1021.05
2017-09-01T01:12:26.728Z,1021
2017-09-01T01:13:35.570Z,1021.05
2017-09-01T01:14:44.612Z,1021.06
2017-09-01T01:15:53.453Z,1021.08
2017-09-01T01:17:02.289Z,1021.1
2017-09-01T01:18:11.127Z,1021.08
2017-09-01T01:19:19.969Z,1021.09
2017-09-01T01:20:28.961Z,1021.12
2017-09-01T01:21:37.803Z,1021.14
2017-09-01T01:22:46.647Z,1021.09
2017-09-01T01:23:55.817Z,1021.13
2017-09-01T01:25:04.658Z,1021.12
2017-09-01T01:26:13.881Z,1021.1
2017-09-01T01:27:22.723Z,1021.13
2017-09-01T01:28:31.562Z,1021.17
2017-09-01T01:29:40.402Z,1021.1
2017-09-01T01:30:49.245Z,1021.12
2017-09-01T01:31:58.136Z,1021.11
2017-09-01T01:33:06.976Z,1021.11
2017-09-01T01:34:15.816Z,1021.15
2017-09-01T01:35:24.659Z,1021.1
2017-09-01T01:36:33.499Z,1021.1
2017-09-01T01:37:42.492Z,1021.11
2017-09-01T01:38:51.332Z,1021.12
2017-09-01T01:40:00.174Z,1021.15
2017-09-01T01:41:09.017Z,1021.16
2017-09-01T01:42:17.859Z,1021.12
2017-09-01T01:43:26.703Z,1021.11
2017-09-01T01:44:35.543Z,1021.09
2017-09-01T01:45:44.384Z,1021.05
2017-09-01T01:46:53.226Z,1021.08
2017-09-01T01:48:02.069Z,1021.07
2017-09-01T01:49:11.061Z,1021.08
2017-09-01T01:50:19.904Z,1021.11
2017-09-01T01:51:28.743Z,1021.11
2017-09-01T01:52:37.584Z,1021.12
2017-09-01T01:53:46.758Z,1021.14
2017-09-01T01:54:55.850Z,1021.16
2017-09-01T01:56:04.693Z,1021.17
2017-09-01T01:57:13.535Z,1021.18
2017-09-01T01:58:22.379Z,1021.18
2017-09-01T01:59:31.218Z,1021.15
2017-09-01T02:00:40.060Z,1021.17
2017-09-01T02:01:48.900Z,1021.13
2017-09-01T02:02:57.741Z,1021.11
2017-09-01T02:04:06.913Z,1021.08
2017-09-01T02:05:15.755Z,1021.08
2017-09-01T02:06:24.744Z,1021.07
2017-09-01T02:07:33.584Z,1021.05
2017-09-01T02:08:42.426Z,1021.07
2017-09-01T02:09:51.264Z,1021.1
2017-09-01T02:11:00.107Z,1021.08
2017-09-01T02:12:09.196Z,1021.05
2017-09-01T02:13:18.036Z,1021.08
2017-09-01T02:14:26.879Z,1021.1
2017-09-01T02:15:35.722Z,1021.11
2017-09-01T02:16:44.564Z,1021.13
2017-09-01T02:17:53.554Z,1021.11
2017-09-01T02:19:02.396Z,1021.15
2017-09-01T02:20:11.240Z,1021.15
2017-09-01T02:21:20.437Z,1021.16
2017-09-01T02:22:29.258Z,1021.17
2017-09-01T02:23:38.099Z,1021.2
2017-09-01T02:24:46.939Z,1021.2
2017-09-01T02:25:55.781Z,1021.16
2017-09-01T02:27:04.623Z,1021.17
2017-09-01T02:28:13.463Z,1021.15
2017-09-01T02:29:22.354Z,1021.15
2017-09-01T02:30:31.195Z,1021.12
2017-09-01T02:31:40.035Z,1021.12
2017-09-01T02:32:48.976Z,1021.08
2017-09-01T02:33:57.818Z,1021.06
2017-09-01T02:35:06.708Z,1021.06
2017-09-01T02:36:15.549Z,1021.1
2017-09-01T02:37:24.390Z,1021.08
2017-09-01T02:38:33.232Z,1021.1
2017-09-01T02:39:42.074Z,1021.1
2017-09-01T02:40:51.167Z,1021.09
2017-09-01T02:42:00.008Z,1021.09
2017-09-01T02:43:08.851Z,1021.12
2017-09-01T02:44:17.698Z,1021.15
2017-09-01T02:45:26.533Z,1021.16
2017-09-01T02:46:35.523Z,1021.15
2017-09-01T02:47:44.699Z,1021.16
2017-09-01T02:48:53.544Z,1021.15
2017-09-01T02:50:02.387Z,1021.14
2017-09-01T02:51:11.229Z,1021.17
2017-09-01T02:52:20.372Z,1021.12
2017-09-01T02:53:29.213Z,1021.09
2017-09-01T02:54:38.397Z,1021.06
2017-09-01T02:55:47.236Z,1021.1
2017-09-01T02:56:56.079Z,1021.07
2017-09-01T02:58:05.020Z,1021.04
2017-09-01T02:59:13.862Z,1021.01
2017-09-01T03:00:23.034Z,1020.99
2017-09-01T03:01:31.875Z,1021
2017-09-01T03:02:40.716Z,1021.06
2017-09-01T03:03:49.710Z,1021
2017-09-01T03:04:58.550Z,1021.02
2017-09-01T03:06:07.722Z,1021
2017-09-01T03:07:16.565Z,1021
2017-09-01T03:08:25.407Z,1020.98
2017-09-01T03:09:34.449Z,1020.98
2017-09-01T03:10:43.290Z,1021.02
2017-09-01T03:11:52.129Z,1020.98
2017-09-01T03:13:01.301Z,1020.96
2017-09-01T03:14:10.141Z,1020.92
2017-09-01T03:15:19.130Z,1020.92
2017-09-01T03:16:27.973Z,1020.93
2017-09-01T03:17:36.815Z,1020.9
2017-09-01T03:18:45.653Z,1020.89
2017-09-01T03:19:54.495Z,1020.87
2017-09-01T03:21:03.486Z,1020.88
2017-09-01T03:22:12.326Z,1020.86
2017-09-01T03:23:21.169Z,1020.89
2017-09-01T03:24:30.010Z,1020.87
2017-09-01T03:25:38.851Z,1020.92
2017-09-01T03:26:47.844Z,1020.9
2017-09-01T03:27:57.015Z,1020.89
2017-09-01T03:29:05.852Z,1020.9
2017-09-01T03:30:14.695Z,1020.88
2017-09-01T03:31:23.872Z,1020.92
2017-09-01T03:32:33.013Z,1020.92
2017-09-01T03:33:41.857Z,1020.95
2017-09-01T03:34:51.025Z,1020.93
2017-09-01T03:35:59.865Z,1020.93
2017-09-01T03:37:08.705Z,1020.94
2017-09-01T03:38:17.694Z,1020.95
2017-09-01T03:39:26.535Z,1020.96
2017-09-01T03:40:35.381Z,1020.96
2017-09-01T03:41:44.223Z,1020.98
2017-09-01T03:42:53.065Z,1020.96
2017-09-01T03:44:02.008Z,1020.94
2017-09-01T03:45:10.847Z,1020.93
2017-09-01T03:46:19.688Z,1020.97
2017-09-01T03:47:28.530Z,1020.92
2017-09-01T03:48:37.372Z,1020.95
2017-09-01T03:49:46.647Z,1020.94
2017-09-01T03:50:55.490Z,1020.98
2017-09-01T03:52:04.327Z,1020.97
2017-09-01T03:53:13.168Z,1020.96
2017-09-01T03:54:22.007Z,1020.96
2017-09-01T03:55:30.849Z,1020.99
2017-09-01T03:56:39.691Z,1020.99
2017-09-01T03:57:48.530Z,1021.02
2017-09-01T03:58:57.372Z,1020.97
2017-09-01T04:00:06.211Z,1020.96
2017-09-01T04:01:15.155Z,1021
2017-09-01T04:02:23.996Z,1021
2017-09-01T04:03:32.844Z,1020.98
2017-09-01T04:04:41.678Z,1021.02
2017-09-01T04:05:50.853Z,1021.02
2017-09-01T04:06:59.945Z,1020.99
2017-09-01T04:08:08.785Z,1021.01
2017-09-01T04:09:17.625Z,1021.02
2017-09-01T04:10:26.465Z,1021.02
2017-09-01T04:11:35.307Z,1021.03
2017-09-01T04:12:44.249Z,1021.04
2017-09-01T04:13:53.090Z,1021.07
2017-09-01T04:15:01.930Z,1021.06
2017-09-01T04:16:11.108Z,1021.12
2017-09-01T04:17:19.949Z,1021.1
2017-09-01T04:18:28.888Z,1021.06
2017-09-01T04:19:37.731Z,1021.06
2017-09-01T04:20:46.569Z,1021.06
2017-09-01T04:21:55.411Z,1021.11
2017-09-01T04:23:04.250Z,1021.07
2017-09-01T04:24:13.391Z,1021.11
2017-09-01T04:25:22.230Z,1021.11
2017-09-01T04:26:31.068Z,1021.13
2017-09-01T04:27:39.910Z,1021.1
2017-09-01T04:28:48.752Z,1021.08
2017-09-01T04:29:57.980Z,1021.09
2017-09-01T04:31:06.823Z,1021.08
2017-09-01T04:32:15.662Z,1021.06
2017-09-01T04:33:24.502Z,1021.07
2017-09-01T04:34:33.342Z,1021.08
2017-09-01T04:35:42.186Z,1021.11
2017-09-01T04:36:51.027Z,1021.1
2017-09-01T04:37:59.870Z,1021.13
2017-09-01T04:39:08.711Z,1021.12
2017-09-01T04:40:17.552Z,1021.09
2017-09-01T04:41:26.693Z,1021.08
2017-09-01T04:42:35.534Z,1021.08
2017-09-01T04:43:44.373Z,1021.1
2017-09-01T04:44:53.220Z,1021.1
2017-09-01T04:46:02.056Z,1021.09
2017-09-01T04:47:11.050Z,1021.12
2017-09-01T04:48:19.892Z,1021.15
2017-09-01T04:49:28.734Z,1021.15
2017-09-01T04:50:37.907Z,1021.14
2017-09-01T04:51:47.080Z,1021.16
2017-09-01T04:52:55.918Z,1021.16
2017-09-01T04:54:04.758Z,1021.21
2017-09-01T04:55:13.932Z,1021.2
2017-09-01T04:56:22.770Z,1021.16
2017-09-01T04:57:31.611Z,1021.15
2017-09-01T04:58:40.502Z,1021.14
2017-09-01T04:59:49.345Z,1021.17
2017-09-01T05:00:58.185Z,1021.15
2017-09-01T05:02:07.027Z,1021.17
2017-09-01T05:03:15.871Z,1021.17
2017-09-01T05:04:24.864Z,1021.17
2017-09-01T05:05:33.712Z,1021.21
2017-09-01T05:06:42.548Z,1021.22
2017-09-01T05:07:51.396Z,1021.21
2017-09-01T05:09:00.240Z,1021.27
2017-09-01T05:10:09.232Z,1021.31
2017-09-01T05:11:18.412Z,1021.29
2017-09-01T05:12:27.255Z,1021.33
2017-09-01T05:13:36.095Z,1021.3
2017-09-01T05:14:44.937Z,1021.33
2017-09-01T05:15:54.313Z,1021.35
2017-09-01T05:17:03.154Z,1021.37
2017-09-01T05:18:11.997Z,1021.37
2017-09-01T05:19:20.841Z,1021.41
2017-09-01T05:20:29.682Z,1021.41
2017-09-01T05:21:38.775Z,1021.45
2017-09-01T05:22:47.616Z,1021.48
2017-09-01T05:23:56.457Z,1021.48
2017-09-01T05:25:05.302Z,1021.48
2017-09-01T05:26:14.142Z,1021.52
2017-09-01T05:27:23.134Z,1021.48
2017-09-01T05:28:31.975Z,1021.47
2017-09-01T05:29:40.868Z,1021.48
2017-09-01T05:30:49.712Z,1021.53
2017-09-01T05:31:58.554Z,1021.5
2017-09-01T05:33:07.496Z,1021.48
2017-09-01T05:34:16.342Z,1021.51
2017-09-01T05:35:25.181Z,1021.49
2017-09-01T05:36:34.025Z,1021.47
2017-09-01T05:37:43.198Z,1021.49
2017-09-01T05:38:52.192Z,1021.54
2017-09-01T05:40:01.034Z,1021.52
2017-09-01T05:41:09.876Z,1021.54
2017-09-01T05:42:18.718Z,1021.54
2017-09-01T05:43:27.657Z,1021.58
2017-09-01T05:44:36.647Z,1021.54
2017-09-01T05:45:45.486Z,1021.56
2017-09-01T05:46:54.330Z,1021.54
2017-09-01T05:48:03.171Z,1021.52
2017-09-01T05:49:12.013Z,1021.51
2017-09-01T05:50:20.957Z,1021.5
2017-09-01T05:51:29.800Z,1021.53
2017-09-01T05:52:38.641Z,1021.52
2017-09-01T05:53:47.485Z,1021.54
2017-09-01T05:54:56.338Z,1021.56
2017-09-01T05:56:05.220Z,1021.56
2017-09-01T05:57:14.064Z,1021.52
2017-09-01T05:58:22.905Z,1021.54
2017-09-01T05:59:31.746Z,1021.53
2017-09-01T06:00:40.588Z,1021.53
2017-09-01T06:01:49.584Z,1021.55
2017-09-01T06:02:58.426Z,1021.52
2017-09-01T06:04:07.270Z,1021.51
2017-09-01T06:05:16.445Z,1021.55
2017-09-01T06:06:25.289Z,1021.55
2017-09-01T06:07:34.282Z,1021.53
2017-09-01T06:08:43.124Z,1021.57
2017-09-01T06:09:51.966Z,1021.5
2017-09-01T06:11:00.809Z,1021.46
2017-09-01T06:12:09.655Z,1021.52
2017-09-01T06:13:18.548Z,1021.51
2017-09-01T06:14:27.389Z,1021.51
2017-09-01T06:15:36.234Z,1021.49
2017-09-01T06:16:45.414Z,1021.54
2017-09-01T06:17:54.261Z,1021.55
2017-09-01T06:19:03.451Z,1021.59
2017-09-01T06:20:12.286Z,1021.56
2017-09-01T06:21:21.130Z,1021.57
2017-09-01T06:22:29.975Z,1021.62
2017-09-01T06:23:38.818Z,1021.64
2017-09-01T06:24:47.814Z,1021.62
2017-09-01T06:25:56.660Z,1021.66
2017-09-01T06:27:05.507Z,1021.67
2017-09-01T06:28:14.354Z,1021.66
2017-09-01T06:29:23.230Z,1021.64
2017-09-01T06:30:32.423Z,1021.69
2017-09-01T06:31:41.266Z,1021.66
2017-09-01T06:32:50.109Z,1021.69
2017-09-01T06:33:58.954Z,1021.73
2017-09-01T06:35:08.133Z,1021.72
2017-09-01T06:36:17.130Z,1021.75
2017-09-01T06:37:25.977Z,1021.76
2017-09-01T06:38:34.827Z,1021.72
2017-09-01T06:39:44.002Z,1021.73
2017-09-01T06:40:52.852Z,1021.75
2017-09-01T06:42:01.847Z,1021.75
2017-09-01T06:43:11.025Z,1021.72
2017-09-01T06:44:19.871Z,1021.75
2017-09-01T06:45:28.717Z,1021.75
2017-09-01T06:46:37.901Z,1021.74
2017-09-01T06:47:46.895Z,1021.75
2017-09-01T06:48:56.066Z,1021.76
2017-09-01T06:50:04.909Z,1021.76
2017-09-01T06:51:13.753Z,1021.76
2017-09-01T06:52:22.596Z,1021.81
2017-09-01T06:53:31.690Z,1021.8
2017-09-01T06:54:40.535Z,1021.79
2017-09-01T06:55:49.403Z,1021.78
2017-09-01T06:56:58.222Z,1021.77
2017-09-01T06:58:07.065Z,1021.74
2017-09-01T06:59:16.108Z,1021.74
2017-09-01T07:00:24.953Z,1021.75
2017-09-01T07:01:33.802Z,1021.75
2017-09-01T07:02:42.646Z,1021.74
2017-09-01T07:03:51.492Z,1021.71
2017-09-01T07:05:00.488Z,1021.76
2017-09-01T07:06:09.332Z,1021.78
2017-09-01T07:07:18.179Z,1021.79
2017-09-01T07:08:27.024Z,1021.78
2017-09-01T07:09:35.864Z,1021.79
2017-09-01T07:10:45.013Z,1021.79
2017-09-01T07:11:53.859Z,1021.82
2017-09-01T07:13:02.702Z,1021.83
2017-09-01T07:14:11.547Z,1021.81
2017-09-01T07:15:20.392Z,1021.86
2017-09-01T07:16:29.388Z,1021.86
2017-09-01T07:17:38.565Z,1021.87
2017-09-01T07:18:47.410Z,1021.9
2017-09-01T07:19:56.258Z,1021.91
2017-09-01T07:21:05.106Z,1021.93
2017-09-01T07:22:14.251Z,1021.87
2017-09-01T07:23:23.101Z,1021.87
2017-09-01T07:24:31.941Z,1021.85
2017-09-01T07:25:40.787Z,1021.85
2017-09-01T07:26:49.632Z,1021.88
2017-09-01T07:27:58.649Z,1021.87
2017-09-01T07:29:07.466Z,1021.88
2017-09-01T07:30:16.310Z,1021.88
2017-09-01T07:31:25.155Z,1021.87
2017-09-01T07:32:34.000Z,1021.9
2017-09-01T07:33:42.948Z,1021.9
2017-09-01T07:34:51.796Z,1021.89
2017-09-01T07:36:00.643Z,1021.92
2017-09-01T07:37:09.818Z,1021.93
2017-09-01T07:38:18.665Z,1021.97
2017-09-01T07:39:27.561Z,1021.94
2017-09-01T07:40:36.410Z,1021.92
2017-09-01T07:41:45.259Z,1021.93
2017-09-01T07:42:54.106Z,1021.94
2017-09-01T07:44:02.956Z,1021.9
2017-09-01T07:45:12.204Z,1021.93
2017-09-01T07:46:21.051Z,1021.93
2017-09-01T07:47:29.899Z,1021.92
2017-09-01T07:48:38.750Z,1021.89
2017-09-01T07:49:47.601Z,1021.91
2017-09-01T07:50:56.749Z,1021.86
2017-09-01T07:52:05.597Z,1021.9
2017-09-01T07:53:14.443Z,1021.87
2017-09-01T07:54:23.290Z,1021.86
2017-09-01T07:55:32.136Z,1021.89
2017-09-01T07:56:41.085Z,1021.95
2017-09-01T07:57:49.933Z,1021.88
2017-09-01T07:58:58.780Z,1021.93
2017-09-01T08:00:07.629Z,1021.92
2017-09-01T08:01:16.477Z,1021.9
2017-09-01T08:02:25.573Z,1021.91
2017-09-01T08:03:34.420Z,1021.93
2017-09-01T08:04:43.268Z,1021.91
2017-09-01T08:05:52.114Z,1021.89
2017-09-01T08:07:00.962Z,1021.88
2017-09-01T08:08:10.059Z,1021.87
2017-09-01T08:09:18.908Z,1021.9
2017-09-01T08:10:27.755Z,1021.91
2017-09-01T08:11:36.603Z,1021.91
2017-09-01T08:12:45.455Z,1021.9
2017-09-01T08:13:54.935Z,1021.89
2017-09-01T08:15:03.781Z,1021.85
2017-09-01T08:16:12.629Z,1021.89
2017-09-01T08:17:21.482Z,1021.89
2017-09-01T08:18:30.329Z,1021.9
2017-09-01T08:19:39.475Z,1021.87
2017-09-01T08:20:48.330Z,1021.9
2017-09-01T08:21:57.182Z,1021.91
2017-09-01T08:23:06.027Z,1021.89
2017-09-01T08:24:15.551Z,1021.92
2017-09-01T08:25:24.548Z,1021.95
2017-09-01T08:26:33.394Z,1021.93
2017-09-01T08:27:42.243Z,1021.93
2017-09-01T08:28:51.091Z,1021.94
2017-09-01T08:29:59.939Z,1021.92
2017-09-01T08:31:09.369Z,1021.94
2017-09-01T08:32:18.213Z,1021.96
2017-09-01T08:33:27.060Z,1021.97
2017-09-01T08:34:35.908Z,1022
2017-09-01T08:35:44.755Z,1021.98
2017-09-01T08:36:53.750Z,1021.98
2017-09-01T08:38:02.937Z,1021.97
2017-09-01T08:39:11.785Z,1021.96
2017-09-01T08:40:20.634Z,1021.89
2017-09-01T08:41:29.480Z,1021.91
2017-09-01T08:42:38.378Z,1021.91
2017-09-01T08:43:47.226Z,1021.92
2017-09-01T08:44:56.073Z,1021.91
2017-09-01T08:46:04.920Z,1021.88
2017-09-01T08:47:13.769Z,1021.9
2017-09-01T08:48:22.767Z,1021.87
2017-09-01T08:49:31.615Z,1021.86
2017-09-01T08:50:40.466Z,1021.85
2017-09-01T08:51:49.317Z,1021.88
2017-09-01T08:52:58.166Z,1021.82
2017-09-01T08:54:07.119Z,1021.81
2017-09-01T08:55:15.968Z,1021.84
2017-09-01T08:56:24.821Z,1021.83
2017-09-01T08:57:33.681Z,1021.8
2017-09-01T08:58:42.868Z,1021.79
2017-09-01T08:59:51.865Z,1021.77
2017-09-01T09:01:00.713Z,1021.78
2017-09-01T09:02:09.558Z,1021.74
2017-09-01T09:03:18.406Z,1021.72
2017-09-01T09:04:27.590Z,1021.72
2017-09-01T09:05:36.490Z,1021.71
2017-09-01T09:06:45.345Z,1021.74
2017-09-01T09:07:54.190Z,1021.75
2017-09-01T09:09:03.039Z,1021.7
2017-09-01T09:10:11.896Z,1021.72
2017-09-01T09:11:20.894Z,1021.7
2017-09-01T09:12:29.739Z,1021.71
2017-09-01T09:13:38.590Z,1021.67
2017-09-01T09:14:47.435Z,1021.63
2017-09-01T09:15:56.284Z,1021.61
2017-09-01T09:17:05.333Z,1021.64
2017-09-01T09:18:14.183Z,1021.63
2017-09-01T09:19:23.032Z,1021.64
2017-09-01T09:20:31.881Z,1021.66
2017-09-01T09:21:40.729Z,1021.67
2017-09-01T09:22:49.576Z,1021.62
2017-09-01T09:23:58.425Z,1021.64
2017-09-01T09:25:07.273Z,1021.67
2017-09-01T09:26:16.122Z,1021.68
2017-09-01T09:27:24.971Z,1021.7
2017-09-01T09:28:34.304Z,1021.7
2017-09-01T09:29:43.152Z,1021.75
2017-09-01T09:30:52.000Z,1021.73
2017-09-01T09:32:00.848Z,1021.71
2017-09-01T09:33:09.700Z,1021.71
2017-09-01T09:34:18.803Z,1021.7
2017-09-01T09:35:27.653Z,1021.64
2017-09-01T09:36:36.499Z,1021.65
2017-09-01T09:37:45.348Z,1021.66
2017-09-01T09:38:54.199Z,1021.66
2017-09-01T09:40:03.051Z,1021.68
2017-09-01T09:41:11.900Z,1021.66
2017-09-01T09:42:20.748Z,1021.68
2017-09-01T09:43:29.596Z,1021.69
2017-09-01T09:44:38.445Z,1021.67
2017-09-01T09:45:47.344Z,1021.67
2017-09-01T09:46:56.194Z,1021.63
2017-09-01T09:48:05.042Z,1021.64
2017-09-01T09:49:13.894Z,1021.64
2017-09-01T09:50:23.079Z,1021.68
2017-09-01T09:51:32.078Z,1021.63
2017-09-01T09:52:40.927Z,1021.66
2017-09-01T09:53:49.775Z,1021.67
2017-09-01T09:54:58.631Z,1021.67
2017-09-01T09:56:07.472Z,1021.62
2017-09-01T09:57:16.474Z,1021.64
2017-09-01T09:58:25.337Z,1021.66
2017-09-01T09:59:34.189Z,1021.65
2017-09-01T10:00:43.039Z,1021.69
2017-09-01T10:01:51.889Z,1021.71
2017-09-01T10:03:00.838Z,1021.71
2017-09-01T10:04:09.693Z,1021.68
2017-09-01T10:05:18.872Z,1021.7
2017-09-01T10:06:27.721Z,1021.68
2017-09-01T10:07:36.570Z,1021.71
2017-09-01T10:08:45.471Z,1021.69
2017-09-01T10:09:54.320Z,1021.74
2017-09-01T10:11:03.165Z,1021.7
2017-09-01T10:12:12.018Z,1021.67
2017-09-01T10:13:20.866Z,1021.76
2017-09-01T10:14:29.865Z,1021.71
2017-09-01T10:15:38.715Z,1021.67
2017-09-01T10:16:47.564Z,1021.66
2017-09-01T10:17:56.414Z,1021.67
2017-09-01T10:19:05.266Z,1021.7
2017-09-01T10:20:14.270Z,1021.67
2017-09-01T10:21:23.118Z,1021.66
2017-09-01T10:22:31.972Z,1021.63
2017-09-01T10:23:40.821Z,1021.63
2017-09-01T10:24:49.672Z,1021.64
2017-09-01T10:25:58.721Z,1021.63
2017-09-01T10:27:07.569Z,1021.65
2017-09-01T10:28:16.419Z,1021.62
2017-09-01T10:29:25.270Z,1021.64
2017-09-01T10:30:34.118Z,1021.63
2017-09-01T10:31:43.401Z,1021.66
2017-09-01T10:32:52.254Z,1021.62
2017-09-01T10:34:01.106Z,1021.63
2017-09-01T10:35:09.954Z,1021.64
2017-09-01T10:36:18.805Z,1021.64
2017-09-01T10:37:28.191Z,1021.64
2017-09-01T10:38:37.041Z,1021.64
2017-09-01T10:39:45.893Z,1021.68
2017-09-01T10:40:54.743Z,1021.67
2017-09-01T10:42:03.597Z,1021.64
2017-09-01T10:43:12.698Z,1021.61
2017-09-01T10:44:21.558Z,1021.65
2017-09-01T10:45:30.738Z,1021.61
2017-09-01T10:46:39.589Z,1021.66
2017-09-01T10:47:48.439Z,1021.65
2017-09-01T10:48:57.439Z,1021.63
2017-09-01T10:50:06.290Z,1021.64
2017-09-01T10:51:15.140Z,1021.63
2017-09-01T10:52:23.990Z,1021.68
2017-09-01T10:53:32.843Z,1021.65
2017-09-01T10:54:41.796Z,1021.62
2017-09-01T10:55:50.649Z,1021.65
2017-09-01T10:56:59.501Z,1021.63
2017-09-01T10:58:08.352Z,1021.61
2017-09-01T10:59:17.206Z,1021.59
2017-09-01T11:00:26.157Z,1021.63
2017-09-01T11:01:35.008Z,1021.61
2017-09-01T11:02:43.861Z,1021.61
2017-09-01T11:03:52.710Z,1021.6
2017-09-01T11:05:01.562Z,1021.63
2017-09-01T11:06:10.461Z,1021.57
2017-09-01T11:07:19.312Z,1021.53
2017-09-01T11:08:28.170Z,1021.5
2017-09-01T11:09:37.022Z,1021.5
2017-09-01T11:10:45.874Z,1021.48
2017-09-01T11:11:55.028Z,1021.52
2017-09-01T11:13:03.881Z,1021.56
2017-09-01T11:14:13.063Z,1021.53
2017-09-01T11:15:21.915Z,1021.54
2017-09-01T11:16:30.770Z,1021.56
2017-09-01T11:17:39.624Z,1021.55
2017-09-01T11:18:48.476Z,1021.56
2017-09-01T11:19:57.327Z,1021.54
2017-09-01T11:21:06.179Z,1021.52
2017-09-01T11:22:15.030Z,1021.55
2017-09-01T11:23:24.615Z,1021.56
2017-09-01T11:24:33.469Z,1021.53
2017-09-01T11:25:42.320Z,1021.63
2017-09-01T11:26:51.170Z,1021.58
2017-09-01T11:28:00.023Z,1021.58
2017-09-01T11:29:09.074Z,1021.57
2017-09-01T11:30:17.926Z,1021.61
2017-09-01T11:31:26.778Z,1021.57
2017-09-01T11:32:35.628Z,1021.56
2017-09-01T11:33:44.479Z,1021.54
2017-09-01T11:34:53.482Z,1021.5
2017-09-01T11:36:02.335Z,1021.5
2017-09-01T11:37:11.519Z,1021.55
2017-09-01T11:38:20.370Z,1021.56
2017-09-01T11:39:29.554Z,1021.55
2017-09-01T11:40:38.506Z,1021.5
2017-09-01T11:41:47.355Z,1021.52
2017-09-01T11:42:56.208Z,1021.51
2017-09-01T11:44:05.058Z,1021.47
2017-09-01T11:45:13.911Z,1021.42
2017-09-01T11:46:22.812Z,1021.44
2017-09-01T11:47:31.661Z,1021.4
2017-09-01T11:48:40.511Z,1021.43
2017-09-01T11:49:49.367Z,1021.44
2017-09-01T11:50:58.581Z,1021.4
2017-09-01T11:52:07.448Z,1021.4
2017-09-01T11:53:16.303Z,1021.37
2017-09-01T11:54:25.168Z,1021.42
2017-09-01T11:55:34.353Z,1021.4
2017-09-01T11:56:43.205Z,1021.45
2017-09-01T11:57:52.068Z,1021.48
2017-09-01T11:59:00.917Z,1021.4
2017-09-01T12:00:09.768Z,1021.42
2017-09-01T12:01:18.957Z,1021.37
2017-09-01T12:02:27.807Z,1021.28
2017-09-01T12:03:36.658Z,1021.33
2017-09-01T12:04:45.532Z,1021.34
2017-09-01T12:05:54.411Z,1021.37
2017-09-01T12:07:03.269Z,1021.32
2017-09-01T12:08:12.123Z,1021.33
2017-09-01T12:09:20.977Z,1021.27
2017-09-01T12:10:29.826Z,1021.22
2017-09-01T12:11:38.678Z,1021.21
2017-09-01T12:12:47.531Z,1021.16
2017-09-01T12:13:56.386Z,1021.12
2017-09-01T12:15:05.238Z,1021.16
2017-09-01T12:16:14.132Z,1021.18
2017-09-01T12:17:22.989Z,1021.15
2017-09-01T12:18:31.843Z,1021.14
2017-09-01T12:19:40.698Z,1021.12
2017-09-01T12:20:49.601Z,1021.15
2017-09-01T12:21:58.475Z,1021.18
2017-09-01T12:23:07.482Z,1021.16
2017-09-01T12:24:16.338Z,1021.18
2017-09-01T12:25:25.194Z,1021.17
2017-09-01T12:26:34.047Z,1021.1
2017-09-01T12:27:42.915Z,1021.05
2017-09-01T12:28:51.941Z,1021.01
2017-09-01T12:30:00.793Z,1021.04
2017-09-01T12:31:09.669Z,1021.06
2017-09-01T12:32:18.867Z,1021.09
2017-09-01T12:33:28.060Z,1021.1
2017-09-01T12:34:37.015Z,1021.13
2017-09-01T12:35:45.870Z,1021.12
2017-09-01T12:36:54.727Z,1021.11
2017-09-01T12:38:03.916Z,1021.13
2017-09-01T12:39:12.769Z,1021.09
2017-09-01T12:40:21.924Z,1021.09
2017-09-01T12:41:30.778Z,1021.07
2017-09-01T12:42:39.636Z,1021.05
2017-09-01T12:43:48.826Z,1021.02
2017-09-01T12:44:57.681Z,1021
2017-09-01T12:46:06.737Z,1021.04
2017-09-01T12:47:15.601Z,1021.04
2017-09-01T12:48:24.452Z,1021.12
2017-09-01T12:49:33.307Z,1021.04
2017-09-01T12:50:42.159Z,1021.03
2017-09-01T12:51:51.214Z,1021.01
2017-09-01T12:53:00.083Z,1021
2017-09-01T12:54:08.940Z,1021
2017-09-01T12:55:17.927Z,1020.98
2017-09-01T12:56:26.790Z,1021.02
2017-09-01T12:57:35.795Z,1021
2017-09-01T12:58:44.649Z,1021.01
2017-09-01T12:59:53.524Z,1020.96
2017-09-01T13:01:02.708Z,1020.97
2017-09-01T13:02:11.563Z,1020.94
2017-09-01T13:03:20.456Z,1020.98
2017-09-01T13:04:29.313Z,1020.94
2017-09-01T13:05:38.168Z,1020.96
2017-09-01T13:06:47.026Z,1020.94
2017-09-01T13:07:55.882Z,1020.95
2017-09-01T13:09:04.887Z,1020.98
2017-09-01T13:10:14.073Z,1020.94
2017-09-01T13:11:22.933Z,1020.95
2017-09-01T13:12:31.786Z,1020.95
2017-09-01T13:13:40.930Z,1020.93
2017-09-01T13:14:50.592Z,1020.95
2017-09-01T13:15:59.877Z,1020.91
2017-09-01T13:17:08.734Z,1020.94
2017-09-01T13:18:17.809Z,1020.89
2017-09-01T13:19:26.778Z,1020.93
2017-09-01T13:20:35.850Z,1020.86
2017-09-01T13:21:44.706Z,1020.87
2017-09-01T13:22:53.593Z,1020.86
2017-09-01T13:24:02.470Z,1020.81
2017-09-01T13:25:11.347Z,1020.87
2017-09-01T13:26:20.550Z,1020.87
2017-09-01T13:27:30.025Z,1020.89
2017-09-01T13:28:38.880Z,1020.85
2017-09-01T13:29:47.731Z,1020.82
2017-09-01T13:30:56.589Z,1020.81
2017-09-01T13:32:05.836Z,1020.84
2017-09-01T13:33:14.722Z,1020.8
2017-09-01T13:34:23.573Z,1020.82
2017-09-01T13:35:32.440Z,1020.77
2017-09-01T13:36:41.295Z,1020.77
2017-09-01T13:37:50.366Z,1020.75
2017-09-01T13:38:59.402Z,1020.77
2017-09-01T13:40:08.258Z,1020.73
2017-09-01T13:41:17.114Z,1020.83
2017-09-01T13:42:25.968Z,1020.81
2017-09-01T13:43:34.927Z,1020.78
2017-09-01T13:44:43.792Z,1020.75
2017-09-01T13:45:52.648Z,1020.7
2017-09-01T13:47:01.505Z,1020.67
2017-09-01T13:48:10.358Z,1020.79
2017-09-01T13:49:19.365Z,1020.91
2017-09-01T13:50:28.243Z,1020.86
2017-09-01T13:51:37.096Z,1020.81
2017-09-01T13:52:45.955Z,1020.92
2017-09-01T13:53:54.816Z,1021.25
2017-09-01T13:55:03.817Z,1021.03
2017-09-01T13:56:12.677Z,1020.92